Time;durP1;ratioP1;P1;durP2;ratioP2;P2;SDS_P1;SDS_P2;PMS_P1;PMS_P2;Temp;Humidity;BMP_temperature;BMP_pressure;BME280_temperature;BME280_humidity;BME280_pressure;Samples;Min_cycle;Max_cycle;Signal;HPM_P1;HPM_P2
2022/05/19 00:01:55;;;;;;;6.30;5.70;;;17.70;99.90;;;;;;5071109;28;20216;-51
2022/05/19 00:04:23;;;;;;;6.85;5.40;;;17.70;99.90;;;;;;5059289;28;20308;-50
2022/05/19 00:06:52;;;;;;;6.55;5.72;;;17.70;99.90;;;;;;5051171;28;20236;-50
2022/05/19 00:09:21;;;;;;;7.85;5.97;;;17.60;99.90;;;;;;5058511;28;20225;-50
2022/05/19 00:11:49;;;;;;;8.23;5.93;;;17.60;99.90;;;;;;5070500;28;20259;-50
2022/05/19 00:14:18;;;;;;;7.88;6.03;;;17.50;99.90;;;;;;5071247;28;20213;-50
2022/05/19 00:16:46;;;;;;;9.00;5.80;;;17.50;99.90;;;;;;5070915;28;20244;-50
2022/05/19 00:19:18;;;;;;;8.02;6.28;;;17.50;99.90;;;;;;5071413;28;20212;-51
2022/05/19 00:21:46;;;;;;;11.50;9.00;;;17.40;99.90;;;;;;5058266;28;20208;-50
2022/05/19 00:24:14;;;;;;;10.30;8.13;;;17.40;99.90;;;;;;5083012;28;20215;-50
2022/05/19 00:26:43;;;;;;;10.65;8.75;;;17.40;99.90;;;;;;5091199;28;20208;-50
2022/05/19 00:29:11;;;;;;;9.57;8.55;;;17.40;99.90;;;;;;5091044;28;20356;-50
2022/05/19 00:31:39;;;;;;;7.70;6.20;;;17.40;99.90;;;;;;5090903;28;20258;-50
2022/05/19 00:34:07;;;;;;;6.85;5.88;;;17.40;99.90;;;;;;5090458;28;20586;-51
2022/05/19 00:36:37;;;;;;;9.65;5.50;;;17.30;99.90;;;;;;5090827;28;20251;-51
2022/05/19 00:39:05;;;;;;;8.15;5.70;;;17.30;99.90;;;;;;5090373;28;20204;-50
2022/05/19 00:41:33;;;;;;;8.57;6.03;;;17.30;99.90;;;;;;5070994;28;20197;-50
2022/05/19 00:44:04;;;;;;;7.32;6.60;;;17.20;99.90;;;;;;5069667;28;20209;-50
2022/05/19 00:46:41;;;;;;;14.32;6.90;;;17.20;99.90;;;;;;5070498;28;20236;-50
2022/05/19 00:49:14;;;;;;;6.55;6.00;;;17.10;99.90;;;;;;5070334;28;20682;-50
2022/05/19 00:51:48;;;;;;;7.45;6.13;;;17.10;99.90;;;;;;5070311;28;20236;-50
2022/05/19 00:54:20;;;;;;;6.93;5.88;;;17.10;99.90;;;;;;5070608;28;20189;-50
2022/05/19 00:56:54;;;;;;;7.63;6.30;;;17.10;99.90;;;;;;5070081;28;20955;-50
2022/05/19 00:59:27;;;;;;;6.80;5.80;;;17.10;99.90;;;;;;5070221;28;20233;-50
2022/05/19 01:01:56;;;;;;;8.23;6.15;;;17.00;99.90;;;;;;5069715;28;20213;-50
2022/05/19 01:04:28;;;;;;;7.55;6.00;;;17.00;99.90;;;;;;5058205;28;20205;-50
2022/05/19 01:07:05;;;;;;;6.85;6.18;;;16.90;99.90;;;;;;5050194;28;20237;-50
2022/05/19 01:09:35;;;;;;;6.45;5.85;;;16.90;99.90;;;;;;5059107;28;20673;-50
2022/05/19 01:12:03;;;;;;;7.30;5.93;;;16.80;99.90;;;;;;5069890;28;20211;-50
2022/05/19 01:14:32;;;;;;;6.90;6.07;;;16.80;99.90;;;;;;5070103;28;20209;-51
2022/05/19 01:17:00;;;;;;;7.00;6.30;;;16.80;99.90;;;;;;5070018;28;20678;-50
2022/05/19 01:19:33;;;;;;;6.07;5.47;;;16.80;99.90;;;;;;5069467;28;20282;-50
2022/05/19 01:22:11;;;;;;;7.40;5.97;;;16.80;99.90;;;;;;5069714;28;20263;-50
2022/05/19 01:24:50;;;;;;;8.38;5.55;;;16.80;99.90;;;;;;5069501;28;20197;-50
2022/05/19 01:27:19;;;;;;;7.20;6.15;;;16.80;99.90;;;;;;5070123;28;20734;-50
2022/05/19 01:29:47;;;;;;;9.02;5.47;;;16.70;99.90;;;;;;5069404;28;20267;-50
2022/05/19 01:32:24;;;;;;;8.65;6.00;;;16.70;99.90;;;;;;5069504;28;20612;-50
2022/05/19 01:34:53;;;;;;;7.53;6.20;;;16.70;99.90;;;;;;5069426;28;20211;-50
2022/05/19 01:37:21;;;;;;;6.70;6.10;;;16.70;99.90;;;;;;5069392;28;20274;-51
2022/05/19 01:39:55;;;;;;;8.45;5.97;;;16.60;99.90;;;;;;5064592;28;20280;-50
2022/05/19 01:42:36;;;;;;;6.63;6.03;;;16.60;99.90;;;;;;5048949;28;20259;-50
2022/05/19 01:45:13;;;;;;;6.85;6.15;;;16.60;99.90;;;;;;5049304;28;20789;-50
2022/05/19 01:47:47;;;;;;;6.78;6.00;;;16.60;99.90;;;;;;5049513;28;20304;-50
2022/05/19 01:50:24;;;;;;;8.25;5.70;;;16.50;99.90;;;;;;5060340;28;20298;-50
2022/05/19 01:52:57;;;;;;;7.85;6.40;;;16.50;99.90;;;;;;5068634;28;20208;-50
2022/05/19 01:55:31;;;;;;;6.68;5.93;;;16.50;99.90;;;;;;5069546;28;20666;-50
2022/05/19 01:58:08;;;;;;;6.63;5.70;;;16.50;99.90;;;;;;5069456;28;20239;-50
2022/05/19 02:00:36;;;;;;;6.70;6.05;;;16.50;99.90;;;;;;5069609;28;20233;-50
2022/05/19 02:03:12;;;;;;;7.00;6.30;;;16.40;99.90;;;;;;5067318;28;20697;-50
2022/05/19 02:05:47;;;;;;;7.75;6.38;;;16.50;99.90;;;;;;5049083;28;20255;-51
2022/05/19 02:08:26;;;;;;;6.32;5.72;;;16.40;99.90;;;;;;5049283;28;20240;-51
2022/05/19 02:10:58;;;;;;;6.65;6.03;;;16.30;99.90;;;;;;5069615;28;20293;-50
2022/05/19 02:13:31;;;;;;;7.35;6.22;;;16.30;99.90;;;;;;5068366;28;20258;-50
2022/05/19 02:16:02;;;;;;;8.82;6.10;;;16.30;99.90;;;;;;5069372;28;20239;-50
2022/05/19 02:18:30;;;;;;;6.38;5.82;;;16.30;99.90;;;;;;5069472;28;20205;-50
2022/05/19 02:21:00;;;;;;;8.18;6.07;;;16.30;99.90;;;;;;5069214;28;20323;-50
2022/05/19 02:23:31;;;;;;;6.60;5.82;;;16.30;99.90;;;;;;5068758;28;20239;-50
2022/05/19 02:25:59;;;;;;;6.85;6.25;;;16.20;99.90;;;;;;5068980;28;20745;-50
2022/05/19 02:28:33;;;;;;;8.38;6.07;;;16.20;99.90;;;;;;5068817;28;20266;-50
2022/05/19 02:31:01;;;;;;;6.65;5.95;;;16.20;99.90;;;;;;5068429;28;20229;-50
2022/05/19 02:33:30;;;;;;;6.80;6.10;;;16.20;99.90;;;;;;5068868;28;20263;-50
2022/05/19 02:35:58;;;;;;;6.70;5.85;;;16.20;99.90;;;;;;5068872;28;20247;-50
2022/05/19 02:38:26;;;;;;;8.57;6.25;;;16.20;99.90;;;;;;5069036;28;20213;-50
2022/05/19 02:40:54;;;;;;;6.18;5.57;;;16.20;99.90;;;;;;5067929;28;20705;-50
2022/05/19 02:43:22;;;;;;;7.75;6.00;;;16.20;99.90;;;;;;5068662;28;20231;-50
2022/05/19 02:45:51;;;;;;;6.68;6.07;;;16.20;99.90;;;;;;5069085;28;20387;-50
2022/05/19 02:48:20;;;;;;;6.68;5.78;;;16.20;99.90;;;;;;5068648;28;20664;-50
2022/05/19 02:50:49;;;;;;;7.32;5.32;;;16.10;99.90;;;;;;5069052;28;20280;-50
2022/05/19 02:53:19;;;;;;;6.10;5.30;;;16.10;99.90;;;;;;5068227;28;20213;-51
2022/05/19 02:55:47;;;;;;;6.68;5.43;;;16.10;99.90;;;;;;5069115;28;20209;-50
2022/05/19 02:58:16;;;;;;;6.72;6.13;;;16.10;99.90;;;;;;5068702;28;20208;-50
2022/05/19 03:00:47;;;;;;;6.30;5.70;;;16.10;99.90;;;;;;5069244;28;20267;-50
2022/05/19 03:03:17;;;;;;;6.45;5.78;;;16.10;99.90;;;;;;5071987;28;20627;-50
2022/05/19 03:05:45;;;;;;;7.07;6.30;;;16.10;99.90;;;;;;5072063;28;20189;-50
2022/05/19 03:08:14;;;;;;;6.32;5.80;;;16.00;99.90;;;;;;5072733;28;20244;-50
2022/05/19 03:10:44;;;;;;;8.50;6.32;;;16.00;99.90;;;;;;5072307;28;20316;-50
2022/05/19 03:13:18;;;;;;;6.63;5.60;;;16.00;99.90;;;;;;5071840;28;20213;-50
2022/05/19 03:15:46;;;;;;;7.03;5.78;;;15.90;99.90;;;;;;5072153;28;20212;-50
2022/05/19 03:18:16;;;;;;;7.25;6.38;;;15.90;99.90;;;;;;5072562;28;20209;-50
2022/05/19 03:20:45;;;;;;;8.57;6.45;;;15.90;99.90;;;;;;5072259;28;20286;-50
2022/05/19 03:23:13;;;;;;;7.45;6.43;;;15.90;99.90;;;;;;5072038;28;20219;-50
2022/05/19 03:25:41;;;;;;;8.43;6.97;;;15.90;99.90;;;;;;5072140;28;20205;-50
2022/05/19 03:28:15;;;;;;;7.10;6.38;;;15.90;99.90;;;;;;5072155;28;20230;-50
2022/05/19 03:30:43;;;;;;;9.18;6.28;;;15.80;99.90;;;;;;5071854;28;20257;-50
2022/05/19 03:33:12;;;;;;;6.95;6.13;;;15.80;99.90;;;;;;5071173;28;20312;-50
2022/05/19 03:35:42;;;;;;;9.75;6.18;;;15.80;99.90;;;;;;5072243;28;20205;-50
2022/05/19 03:38:10;;;;;;;6.35;5.53;;;15.80;99.90;;;;;;5071738;28;20733;-50
2022/05/19 03:40:38;;;;;;;6.63;5.97;;;15.80;99.90;;;;;;5071050;28;20233;-50
2022/05/19 03:43:07;;;;;;;5.95;5.45;;;15.80;99.90;;;;;;5071460;28;20244;-50
2022/05/19 03:45:39;;;;;;;7.57;6.20;;;15.80;99.90;;;;;;5072191;28;20197;-50
2022/05/19 03:48:08;;;;;;;6.22;5.57;;;15.80;99.90;;;;;;5071927;28;20259;-51
2022/05/19 03:50:36;;;;;;;6.22;5.70;;;15.80;99.90;;;;;;5071991;28;20233;-50
2022/05/19 03:53:06;;;;;;;8.70;6.53;;;15.80;99.90;;;;;;5071724;28;20255;-50
2022/05/19 03:55:34;;;;;;;6.47;5.88;;;15.80;99.90;;;;;;5071803;28;20239;-51
2022/05/19 03:58:02;;;;;;;6.85;6.18;;;15.80;99.90;;;;;;5072139;28;20270;-50
2022/05/19 04:00:30;;;;;;;7.68;6.50;;;15.80;99.90;;;;;;5071444;28;20315;-50
2022/05/19 04:02:59;;;;;;;7.25;6.55;;;15.90;99.90;;;;;;5071045;28;20232;-51
2022/05/19 04:05:29;;;;;;;7.10;6.50;;;15.90;99.90;;;;;;5051767;28;20209;-51
2022/05/19 04:07:57;;;;;;;7.53;6.68;;;15.90;99.90;;;;;;5051806;28;20655;-50
2022/05/19 04:10:26;;;;;;;6.88;6.25;;;16.00;99.90;;;;;;5067311;28;20268;-50
2022/05/19 04:12:54;;;;;;;8.27;6.03;;;16.10;99.90;;;;;;5070481;28;20278;-49
2022/05/19 04:15:22;;;;;;;6.75;5.47;;;16.20;99.90;;;;;;5070655;28;20711;-50
2022/05/19 04:17:50;;;;;;;7.97;6.97;;;16.30;99.90;;;;;;5071055;28;20250;-50
2022/05/19 04:20:19;;;;;;;6.47;5.88;;;16.40;99.90;;;;;;5071303;28;20282;-50
2022/05/19 04:22:47;;;;;;;7.75;6.03;;;16.50;99.90;;;;;;5070412;28;20232;-50
2022/05/19 04:25:15;;;;;;;7.63;5.53;;;16.60;99.90;;;;;;5071333;28;20243;-50
2022/05/19 04:27:44;;;;;;;5.90;5.30;;;16.80;99.90;;;;;;5070449;28;20217;-50
2022/05/19 04:30:12;;;;;;;6.90;5.82;;;17.00;99.90;;;;;;5070868;28;20229;-51
2022/05/19 04:32:42;;;;;;;6.88;6.18;;;17.20;99.90;;;;;;5070706;28;20213;-50
2022/05/19 04:35:11;;;;;;;7.88;5.32;;;17.50;99.90;;;;;;5071000;28;20231;-51
2022/05/19 04:37:39;;;;;;;6.20;5.60;;;17.60;99.90;;;;;;5070705;28;20262;-51
2022/05/19 04:40:08;;;;;;;6.05;5.10;;;17.80;99.90;;;;;;5062609;28;20753;-50
2022/05/19 04:42:37;;;;;;;5.22;4.72;;;17.80;99.90;;;;;;5050123;28;20256;-50
2022/05/19 04:45:08;;;;;;;7.80;5.38;;;17.80;99.90;;;;;;5050161;28;20736;-50
2022/05/19 04:47:36;;;;;;;7.03;5.47;;;17.90;99.90;;;;;;5050759;28;20886;-51
2022/05/19 04:50:05;;;;;;;5.35;4.88;;;18.10;99.90;;;;;;5060106;28;20266;-51
2022/05/19 04:52:33;;;;;;;5.40;4.85;;;18.20;99.90;;;;;;5069950;28;20244;-51
2022/05/19 04:55:01;;;;;;;6.30;5.20;;;18.40;99.90;;;;;;5070099;28;20255;-51
2022/05/19 04:57:35;;;;;;;5.80;4.78;;;18.60;99.90;;;;;;5070605;28;20284;-51
2022/05/19 05:00:08;;;;;;;5.22;4.72;;;18.70;99.90;;;;;;5070306;28;20252;-51
2022/05/19 05:02:36;;;;;;;6.65;5.60;;;18.80;99.90;;;;;;5069770;28;20189;-50
2022/05/19 05:05:05;;;;;;;7.43;5.57;;;18.80;99.90;;;;;;5052628;28;20285;-51
2022/05/19 05:07:33;;;;;;;7.00;6.13;;;18.90;99.90;;;;;;5066464;28;20245;-51
2022/05/19 05:10:01;;;;;;;6.82;5.22;;;19.00;99.90;;;;;;5070270;28;20278;-51
2022/05/19 05:12:29;;;;;;;6.75;5.80;;;19.00;99.90;;;;;;5056741;28;20209;-51
2022/05/19 05:14:57;;;;;;;6.22;5.10;;;19.20;99.90;;;;;;5063435;28;20560;-51
2022/05/19 05:17:27;;;;;;;8.60;5.40;;;19.30;99.90;;;;;;5069740;28;20278;-51
2022/05/19 05:19:55;;;;;;;7.60;5.38;;;19.40;99.90;;;;;;5069319;28;20279;-51
2022/05/19 05:22:23;;;;;;;7.07;5.68;;;19.40;99.90;;;;;;5069366;28;20236;-51
2022/05/19 05:24:52;;;;;;;8.45;5.38;;;19.60;99.90;;;;;;5069000;28;20209;-51
2022/05/19 05:27:20;;;;;;;7.40;5.18;;;19.70;99.90;;;;;;5069535;28;20228;-51
2022/05/19 05:29:48;;;;;;;8.20;4.60;;;19.90;99.90;;;;;;5068948;28;20268;-51
2022/05/19 05:32:16;;;;;;;8.35;5.00;;;20.10;99.90;;;;;;5069040;28;20634;-51
2022/05/19 05:34:45;;;;;;;6.35;4.95;;;20.10;99.90;;;;;;5059307;28;20241;-52
2022/05/19 05:37:13;;;;;;;5.22;4.70;;;20.20;99.90;;;;;;5053437;28;20214;-50
2022/05/19 05:39:41;;;;;;;8.80;5.82;;;20.30;99.90;;;;;;5052717;28;20904;-51
2022/05/19 05:42:10;;;;;;;8.00;4.55;;;20.40;99.90;;;;;;5069015;28;20213;-51
2022/05/19 05:44:38;;;;;;;5.30;4.72;;;20.60;99.90;;;;;;5068963;28;20252;-51
2022/05/19 05:47:06;;;;;;;6.80;4.90;;;20.80;99.90;;;;;;5069282;28;20627;-51
2022/05/19 05:49:34;;;;;;;5.15;4.65;;;21.00;99.90;;;;;;5055847;28;20642;-52
2022/05/19 05:52:05;;;;;;;5.40;4.13;;;21.20;99.90;;;;;;5068604;28;20244;-51
2022/05/19 05:54:34;;;;;;;5.70;3.55;;;21.60;99.90;;;;;;5068944;28;20679;-51
2022/05/19 05:57:02;;;;;;;4.55;3.80;;;22.00;99.90;;;;;;5069029;28;20625;-52
2022/05/19 05:59:30;;;;;;;3.70;3.00;;;22.40;99.90;;;;;;5069076;28;20279;-51
2022/05/19 06:01:58;;;;;;;7.40;3.80;;;22.80;99.90;;;;;;5058351;28;20752;-52
2022/05/19 06:04:26;;;;;;;5.20;3.88;;;22.90;99.90;;;;;;5061451;28;20200;-51
2022/05/19 06:06:54;;;;;;;6.00;3.85;;;22.90;99.90;;;;;;5056979;28;20206;-52
2022/05/19 06:09:24;;;;;;;5.10;4.57;;;23.40;99.90;;;;;;5056037;28;20286;-52
2022/05/19 06:11:52;;;;;;;6.47;4.55;;;23.80;99.90;;;;;;5068280;28;20269;-52
2022/05/19 06:14:20;;;;;;;6.53;4.50;;;24.20;99.90;;;;;;5069242;28;20657;-52
2022/05/19 06:16:48;;;;;;;5.50;4.47;;;24.60;99.90;;;;;;5069091;28;20208;-52
2022/05/19 06:19:18;;;;;;;5.00;4.10;;;25.00;99.90;;;;;;5069268;28;20228;-52
2022/05/19 06:21:47;;;;;;;4.75;3.95;;;25.40;99.90;;;;;;5068783;28;20304;-51
2022/05/19 06:24:15;;;;;;;4.38;3.97;;;25.60;99.90;;;;;;5063877;28;20225;-51
2022/05/19 06:26:44;;;;;;;4.47;3.60;;;25.90;99.90;;;;;;5048976;28;20209;-52
2022/05/19 06:29:12;;;;;;;5.03;3.70;;;26.10;99.90;;;;;;5048666;28;20353;-52
2022/05/19 06:31:40;;;;;;;3.50;3.20;;;26.20;99.90;;;;;;5049091;28;20210;-51
2022/05/19 06:34:10;;;;;;;4.25;3.25;;;26.10;99.90;;;;;;5048947;28;20214;-51
2022/05/19 06:36:43;;;;;;;4.45;3.10;;;26.30;99.90;;;;;;5051495;28;20204;-49
2022/05/19 06:39:11;;;;;;;2.72;2.42;;;26.60;99.90;;;;;;5053009;28;20251;-50
2022/05/19 06:44:28;;;;;;;2.95;2.70;;;27.30;99.90;;;;;;5072695;28;20639;-52
2022/05/19 06:46:56;;;;;;;4.45;2.53;;;27.60;99.90;;;;;;5072338;28;20713;-50
2022/05/19 06:49:25;;;;;;;3.25;2.80;;;27.90;99.90;;;;;;5063863;28;20236;-52
2022/05/19 06:51:53;;;;;;;3.20;2.78;;;27.40;99.90;;;;;;5072525;28;20233;-52
2022/05/19 06:54:22;;;;;;;3.35;2.60;;;27.10;99.90;;;;;;5072727;28;20205;-52
2022/05/19 06:56:49;;;;;;;3.38;2.30;;;26.80;99.90;;;;;;5069551;28;20201;-51
2022/05/19 06:59:17;;;;;;;3.40;2.65;;;26.60;99.90;;;;;;5055904;28;20247;-51
2022/05/19 07:01:47;;;;;;;5.80;2.80;;;26.70;99.90;;;;;;5071996;28;20243;-51
2022/05/19 07:04:16;;;;;;;2.60;2.40;;;26.60;99.90;;;;;;5065531;28;20259;-52
2022/05/19 07:06:44;;;;;;;4.43;2.72;;;26.50;99.90;;;;;;5052649;28;20237;-50
2022/05/19 07:09:12;;;;;;;3.55;2.83;;;26.80;99.90;;;;;;5057976;28;20217;-52
2022/05/19 07:11:40;;;;;;;3.10;2.80;;;26.90;99.90;;;;;;5072260;28;20258;-52
2022/05/19 07:14:09;;;;;;;3.13;2.78;;;27.20;99.90;;;;;;5072328;28;20209;-52
2022/05/19 07:16:38;;;;;;;4.43;2.80;;;27.30;99.90;;;;;;5072225;28;20208;-51
2022/05/19 07:21:54;;;;;;;4.85;2.85;;;27.60;99.90;;;;;;5071564;28;20254;-52
2022/05/19 07:24:23;;;;;;;3.53;2.55;;;27.80;99.90;;;;;;5071715;28;20639;-52
2022/05/19 07:26:54;;;;;;;5.22;2.88;;;27.90;99.90;;;;;;5071981;28;20212;-52
2022/05/19 07:29:23;;;;;;;6.70;3.15;;;27.70;99.90;;;;;;5072010;28;20255;-52
2022/05/19 07:31:53;;;;;;;4.13;3.10;;;27.90;99.90;;;;;;5071263;28;20697;-52
2022/05/19 07:34:23;;;;;;;3.75;2.85;;;27.80;99.90;;;;;;5071916;28;20709;-52
2022/05/19 07:36:52;;;;;;;3.95;2.85;;;27.90;99.10;;;;;;5071283;28;20252;-52
2022/05/19 07:39:20;;;;;;;4.28;2.80;;;28.00;99.10;;;;;;5072077;28;20205;-52
2022/05/19 07:41:48;;;;;;;5.63;3.45;;;28.10;99.80;;;;;;5071557;28;20893;-52
2022/05/19 07:44:16;;;;;;;6.35;3.00;;;28.00;99.90;;;;;;5071807;28;20303;-51
2022/05/19 07:46:45;;;;;;;9.65;3.38;;;28.10;99.70;;;;;;5071142;28;20766;-52
2022/05/19 07:49:13;;;;;;;5.72;3.00;;;27.70;98.60;;;;;;5070661;28;20248;-51
2022/05/19 07:51:44;;;;;;;2.90;2.70;;;27.40;99.40;;;;;;5071728;28;20410;-51
2022/05/19 07:54:15;;;;;;;6.20;2.95;;;27.20;99.10;;;;;;5071341;28;20286;-51
2022/05/19 07:56:44;;;;;;;4.25;2.72;;;27.10;97.90;;;;;;5071788;28;20262;-52
2022/05/19 07:59:12;;;;;;;4.03;2.75;;;27.00;98.70;;;;;;5071316;28;20201;-52
2022/05/19 08:01:42;;;;;;;4.78;2.55;;;27.20;99.10;;;;;;5071238;28;20251;-52
2022/05/19 08:04:17;;;;;;;4.20;2.72;;;26.90;98.00;;;;;;5062171;28;20196;-52
2022/05/19 08:06:46;;;;;;;3.95;2.55;;;26.70;99.40;;;;;;5061456;28;20258;-51
2022/05/19 08:12:01;;;;;;;4.28;2.80;;;26.30;99.90;;;;;;5070589;28;20248;-51
2022/05/19 08:17:33;;;;;;;5.28;2.53;;;26.30;99.90;;;;;;5070904;28;20193;-51
2022/05/19 08:20:01;;;;;;;3.97;2.53;;;26.30;99.70;;;;;;5070887;28;20282;-51
2022/05/19 08:22:31;;;;;;;3.80;2.58;;;26.30;99.90;;;;;;5069112;28;20248;-52
2022/05/19 08:24:59;;;;;;;4.32;2.60;;;26.30;99.90;;;;;;5071178;28;20242;-52
2022/05/19 08:27:27;;;;;;;4.15;2.95;;;26.30;99.90;;;;;;5062540;28;20351;-52
2022/05/19 08:29:55;;;;;;;3.00;2.60;;;26.40;99.40;;;;;;5050877;28;20367;-52
2022/05/19 08:32:24;;;;;;;6.20;2.58;;;26.60;99.30;;;;;;5050901;28;20251;-52
2022/05/19 08:34:53;;;;;;;3.35;2.58;;;26.60;99.20;;;;;;5050791;28;20283;-51
2022/05/19 08:37:21;;;;;;;3.50;2.70;;;26.60;99.90;;;;;;5049089;28;20263;-52
2022/05/19 08:39:50;;;;;;;5.20;2.67;;;26.60;99.90;;;;;;5057030;28;20252;-51
2022/05/19 08:42:20;;;;;;;6.40;2.92;;;26.70;99.90;;;;;;5070153;28;20205;-52
2022/05/19 08:44:52;;;;;;;3.10;2.67;;;26.80;99.80;;;;;;5070487;28;20231;-52
2022/05/19 08:47:25;;;;;;;4.03;2.63;;;26.90;98.70;;;;;;5070837;28;20263;-52
2022/05/19 08:49:57;;;;;;;3.47;2.50;;;26.80;99.90;;;;;;5070472;28;20765;-52
2022/05/19 08:52:28;;;;;;;6.72;3.05;;;26.80;99.90;;;;;;5070067;28;20748;-52
2022/05/19 08:55:00;;;;;;;4.68;2.30;;;26.90;99.90;;;;;;5070473;28;20676;-52
2022/05/19 08:57:35;;;;;;;3.53;2.55;;;27.00;99.00;;;;;;5070346;28;20213;-51
2022/05/19 09:00:10;;;;;;;5.03;2.78;;;27.10;99.90;;;;;;5070314;28;20224;-52
2022/05/19 09:02:44;;;;;;;5.13;2.38;;;27.10;99.90;;;;;;5069598;28;20216;-52
2022/05/19 09:05:37;;;;;;;3.60;2.28;;;27.10;99.10;;;;;;5070551;28;20611;-51
2022/05/19 09:08:15;;;;;;;6.00;2.30;;;27.10;99.40;;;;;;5070127;28;20213;-51
2022/05/19 09:11:02;;;;;;;8.23;2.90;;;27.10;98.70;;;;;;5072014;28;20232;-51
2022/05/19 09:13:36;;;;;;;4.50;2.45;;;27.10;99.90;;;;;;5070912;28;20217;-51
2022/05/19 09:16:11;;;;;;;6.22;2.72;;;27.10;99.80;;;;;;5072525;28;20254;-52
2022/05/19 09:18:42;;;;;;;4.45;2.30;;;27.10;99.90;;;;;;5072727;28;20224;-52
2022/05/19 09:21:10;;;;;;;3.47;2.78;;;27.10;99.10;;;;;;5070427;28;20221;-52
2022/05/19 09:23:40;;;;;;;8.13;2.75;;;27.10;99.10;;;;;;5070341;28;20223;-52
2022/05/19 09:26:40;;;;;;;4.95;2.60;;;27.20;99.40;;;;;;5070589;28;20749;-52
2022/05/19 09:29:12;;;;;;;4.20;2.75;;;27.30;99.90;;;;;;5070168;28;20201;-52
2022/05/19 09:31:43;;;;;;;6.45;2.72;;;27.40;99.90;;;;;;5070244;28;20674;-52
2022/05/19 09:34:11;;;;;;;6.10;2.60;;;27.30;99.10;;;;;;5070470;28;20199;-52
2022/05/19 09:36:53;;;;;;;4.32;2.80;;;27.20;99.10;;;;;;5070119;28;20209;-52
2022/05/19 09:39:21;;;;;;;4.45;2.55;;;27.20;99.80;;;;;;5067107;28;20233;-52
2022/05/19 09:41:55;;;;;;;4.43;2.45;;;27.30;98.90;;;;;;5049715;28;20261;-52
2022/05/19 09:44:28;;;;;;;3.80;2.55;;;27.30;99.20;;;;;;5050165;28;20887;-52
2022/05/19 09:46:56;;;;;;;4.85;2.20;;;27.30;98.20;;;;;;5049804;28;20228;-52
2022/05/19 09:49:28;;;;;;;3.13;2.38;;;27.30;99.30;;;;;;5053757;28;20698;-52
2022/05/19 09:52:01;;;;;;;3.78;2.35;;;27.30;98.70;;;;;;5068403;28;20212;-52
2022/05/19 09:54:31;;;;;;;4.95;2.80;;;27.40;99.70;;;;;;5069889;28;20233;-52
2022/05/19 09:57:06;;;;;;;4.72;2.60;;;27.60;99.60;;;;;;5069802;28;20810;-52
2022/05/19 09:59:38;;;;;;;3.38;2.38;;;27.60;98.30;;;;;;5069313;28;20224;-52
2022/05/19 10:02:16;;;;;;;3.03;2.30;;;27.70;98.70;;;;;;5069091;28;20205;-52
2022/05/19 10:04:50;;;;;;;6.38;2.55;;;27.80;97.60;;;;;;5069133;28;20219;-51
2022/05/19 10:07:24;;;;;;;3.65;2.33;;;27.80;97.80;;;;;;5069557;28;20215;-51
2022/05/19 10:09:56;;;;;;;3.30;2.03;;;27.80;97.10;;;;;;5068806;28;20225;-52
2022/05/19 10:12:28;;;;;;;3.13;2.30;;;27.80;97.50;;;;;;5068413;28;20244;-51
2022/05/19 10:15:01;;;;;;;2.55;1.88;;;27.80;96.30;;;;;;5069007;28;20227;-52
2022/05/19 10:17:42;;;;;;;3.47;2.30;;;27.70;96.70;;;;;;5069460;28;20234;-51
2022/05/19 10:20:17;;;;;;;2.85;2.03;;;27.40;96.20;;;;;;5068470;28;20634;-51
2022/05/19 10:23:17;;;;;;;4.70;2.13;;;27.30;94.60;;;;;;5068341;28;20300;-51
2022/05/19 10:25:55;;;;;;;3.00;1.90;;;27.20;96.10;;;;;;5068814;28;20681;-51
2022/05/19 10:31:52;;;;;;;3.40;2.10;;;27.60;97.60;;;;;;5069102;28;20593;-51
2022/05/19 10:34:33;;;;;;;2.70;2.00;;;27.50;95.80;;;;;;5069292;28;20209;-51
2022/05/19 10:37:07;;;;;;;2.03;1.80;;;27.60;96.60;;;;;;5067806;28;20778;-52
2022/05/19 10:40:00;;;;;;;5.20;2.00;;;27.80;97.70;;;;;;5069243;28;20296;-51
2022/05/19 10:42:38;;;;;;;2.50;1.92;;;27.90;97.10;;;;;;5066342;28;20213;-52
2022/05/19 10:45:22;;;;;;;2.95;1.70;;;27.80;95.50;;;;;;5068865;28;20189;-52
2022/05/19 10:48:17;;;;;;;4.30;2.10;;;27.70;94.20;;;;;;5068768;28;20262;-51
2022/05/19 10:50:53;;;;;;;4.82;1.95;;;27.60;94.90;;;;;;5058582;28;20237;-52
2022/05/19 10:53:51;;;;;;;4.82;1.88;;;27.60;96.10;;;;;;5068332;28;20205;-51
2022/05/19 10:56:30;;;;;;;3.17;2.20;;;27.60;95.70;;;;;;5069190;28;20224;-51
2022/05/19 10:59:13;;;;;;;2.05;1.85;;;27.60;96.30;;;;;;5069023;28;20247;-51
2022/05/19 11:01:53;;;;;;;3.15;1.88;;;27.60;96.50;;;;;;5068585;28;20247;-51
2022/05/19 11:04:50;;;;;;;4.10;2.00;;;27.60;96.10;;;;;;5068637;28;20205;-51
2022/05/19 11:07:33;;;;;;;2.40;2.00;;;27.50;96.30;;;;;;5068660;28;20216;-51
2022/05/19 11:10:11;;;;;;;3.35;2.00;;;27.50;96.40;;;;;;5068472;28;20594;-51
2022/05/19 11:12:47;;;;;;;2.97;1.98;;;27.60;97.40;;;;;;5068193;28;20193;-51
2022/05/19 11:15:25;;;;;;;2.67;2.00;;;27.60;98.00;;;;;;5068626;28;20204;-51
2022/05/19 11:18:05;;;;;;;2.75;1.90;;;27.60;96.70;;;;;;5069010;28;20624;-51
2022/05/19 11:20:38;;;;;;;2.50;2.00;;;27.70;96.90;;;;;;5057877;28;20674;-52
2022/05/19 11:23:13;;;;;;;2.95;2.10;;;27.80;97.80;;;;;;5062553;28;20836;-51
2022/05/19 11:28:39;;;;;;;2.60;2.40;;;27.80;97.60;;;;;;5071702;28;20209;-52
2022/05/19 11:31:12;;;;;;;2.92;2.10;;;27.90;98.50;;;;;;5071551;28;20654;-52
2022/05/19 11:33:46;;;;;;;5.32;2.17;;;28.20;98.20;;;;;;5071417;28;20252;-51
2022/05/19 11:36:21;;;;;;;8.80;2.60;;;28.10;99.30;;;;;;5053067;28;20327;-52
2022/05/19 11:38:58;;;;;;;2.45;2.20;;;28.00;97.80;;;;;;5070008;28;20254;-52
2022/05/19 11:41:29;;;;;;;2.63;2.10;;;27.90;97.10;;;;;;5071763;28;20808;-51
2022/05/19 11:44:04;;;;;;;4.38;2.35;;;27.70;96.80;;;;;;5070790;28;20205;-52
2022/05/19 11:46:37;;;;;;;3.42;1.90;;;27.60;97.00;;;;;;5071613;28;20630;-52
2022/05/19 11:55:14;;;;;;;2.75;2.03;;;27.60;97.10;;;;;;4979598;28;20215;-52
2022/05/19 11:57:48;;;;;;;4.88;2.45;;;27.70;97.30;;;;;;5038014;28;20736;-52
2022/05/19 12:00:22;;;;;;;3.22;2.28;;;27.70;98.10;;;;;;5051126;28;20229;-52
2022/05/19 12:02:54;;;;;;;2.80;2.30;;;27.80;97.90;;;;;;5051036;28;20256;-52
2022/05/19 12:05:31;;;;;;;3.17;2.33;;;27.70;97.80;;;;;;5051398;28;20248;-51
2022/05/19 12:08:07;;;;;;;3.88;2.30;;;27.70;99.30;;;;;;5051411;28;20266;-51
2022/05/19 12:10:38;;;;;;;2.45;2.15;;;27.80;98.10;;;;;;5049708;28;21101;-52
2022/05/19 12:13:09;;;;;;;3.20;2.42;;;27.80;98.40;;;;;;5051674;28;20255;-52
2022/05/19 12:15:40;;;;;;;2.75;2.20;;;27.80;99.80;;;;;;5051037;28;20295;-51
2022/05/19 12:18:33;;;;;;;4.28;2.42;;;27.90;99.00;;;;;;5050335;28;20744;-52
2022/05/19 12:21:31;;;;;;;4.10;2.10;;;28.00;99.50;;;;;;5054058;28;20220;-51
2022/05/19 12:24:07;;;;;;;2.60;2.30;;;28.10;98.50;;;;;;5065242;28;20236;-52
2022/05/19 12:26:50;;;;;;;3.88;2.33;;;28.10;99.40;;;;;;5069658;28;20259;-52
2022/05/19 12:29:33;;;;;;;3.05;2.50;;;28.10;98.50;;;;;;5070346;28;20653;-52
2022/05/19 12:32:09;;;;;;;2.63;2.42;;;28.10;99.10;;;;;;5069981;28;20274;-51
2022/05/19 12:34:44;;;;;;;4.40;2.47;;;28.00;98.80;;;;;;5069420;28;20196;-52
2022/05/19 12:37:50;;;;;;;4.00;2.35;;;28.00;98.80;;;;;;5069988;28;20213;-52
2022/05/19 12:40:27;;;;;;;3.00;2.15;;;28.10;98.60;;;;;;5058619;28;20221;-52
2022/05/19 12:43:33;;;;;;;3.97;2.30;;;28.00;98.80;;;;;;5049770;28;20236;-51
2022/05/19 12:46:02;;;;;;;5.88;2.63;;;27.90;99.00;;;;;;5040193;28;20205;-52
2022/05/19 12:48:48;;;;;;;3.58;2.40;;;28.00;99.60;;;;;;5050000;28;20761;-51
2022/05/19 12:51:42;;;;;;;4.10;2.80;;;28.30;99.90;;;;;;5069511;28;20255;-52
2022/05/19 12:54:10;;;;;;;4.18;2.70;;;28.30;99.90;;;;;;5054480;28;20241;-52
2022/05/19 12:57:17;;;;;;;3.00;2.67;;;28.30;99.90;;;;;;5069768;28;20309;-51
2022/05/19 12:59:50;;;;;;;5.65;2.63;;;28.30;99.70;;;;;;5068432;28;20232;-52
2022/05/19 13:02:25;;;;;;;5.28;2.70;;;28.20;99.20;;;;;;5049796;28;20267;-51
2022/05/19 13:04:58;;;;;;;3.65;2.80;;;28.10;99.90;;;;;;5066103;28;20200;-52
2022/05/19 13:07:30;;;;;;;3.90;2.88;;;28.10;99.90;;;;;;5052492;28;20241;-52
2022/05/19 13:10:05;;;;;;;4.93;2.40;;;28.20;99.90;;;;;;5062140;28;20713;-51
2022/05/19 13:12:44;;;;;;;3.22;2.42;;;28.20;99.90;;;;;;5069359;28;20705;-51
2022/05/19 13:15:23;;;;;;;5.32;2.70;;;28.30;99.90;;;;;;5069605;28;20209;-52
2022/05/19 13:17:53;;;;;;;5.60;2.70;;;28.30;99.90;;;;;;5052866;28;20233;-52
2022/05/19 13:20:26;;;;;;;3.05;2.47;;;28.30;99.90;;;;;;5050375;28;20229;-52
2022/05/19 13:23:20;;;;;;;3.72;3.00;;;28.30;99.90;;;;;;5049621;28;20208;-51
2022/05/19 13:25:51;;;;;;;6.63;2.92;;;28.30;99.90;;;;;;5050027;28;20205;-52
2022/05/19 13:31:20;;;;;;;8.35;3.00;;;28.10;99.50;;;;;;5049970;28;20260;-51
2022/05/19 13:33:50;;;;;;;2.72;2.40;;;28.10;99.90;;;;;;5049393;28;20186;-51
2022/05/19 13:36:29;;;;;;;3.45;2.60;;;28.00;99.90;;;;;;5049950;28;20213;-52
2022/05/19 13:39:07;;;;;;;3.63;2.60;;;28.00;99.90;;;;;;5049852;28;20244;-51